Time;durP1;ratioP1;P1;durP2;ratioP2;P2;SDS_P1;SDS_P2;PMS_P1;PMS_P2;Temp;Humidity;BMP_temperature;BMP_pressure;BME280_temperature;BME280_humidity;BME280_pressure;Samples;Min_cycle;Max_cycle;Signal;HPM_P1;HPM_P2
2021/12/16 00:05:57;;;;;;;10.70;6.82;;;;;;;-145.06;0.00;60892.56;4727243;29;20032;-88
2021/12/16 00:08:39;;;;;;;9.63;6.72;;;;;;;-145.06;0.00;60892.56;4747698;29;20021;-89
2021/12/16 00:32:17;;;;;;;8.55;5.55;;;;;;;-145.06;0.00;60892.56;4658740;29;20394;-90
2021/12/16 00:34:57;;;;;;;8.90;5.22;;;;;;;-145.06;0.00;60892.56;4723082;29;20099;-88
2021/12/16 00:37:36;;;;;;;8.95;5.55;;;;;;;-145.06;0.00;60892.56;4719528;29;20486;-89
2021/12/16 00:40:15;;;;;;;7.90;5.67;;;;;;;-145.06;0.00;60892.56;4713322;29;20048;-88
2021/12/16 00:42:59;;;;;;;9.60;5.97;;;;;;;-145.06;0.00;60892.56;4718552;29;20044;-88
2021/12/16 00:45:45;;;;;;;8.82;5.45;;;;;;;-145.06;0.00;60892.56;4716938;29;20288;-89
2021/12/16 00:48:38;;;;;;;8.23;5.78;;;;;;;-145.06;0.00;60892.56;4715475;29;20059;-88
2021/12/16 00:54:19;;;;;;;9.25;5.70;;;;;;;10.58;0.00;60892.56;4728475;29;20409;-89
2021/12/16 00:57:05;;;;;;;8.50;5.85;;;;;;;-145.06;0.00;60892.56;4712691;29;20725;-88
2021/12/16 00:59:48;;;;;;;9.15;6.03;;;;;;;-145.06;0.00;60892.56;4712214;29;20044;-88
2021/12/16 01:08:15;;;;;;;10.77;6.38;;;;;;;-145.06;0.00;60892.56;4734680;29;20020;-88
2021/12/16 01:40:45;;;;;;;10.30;6.47;;;;;;;-145.06;0.00;60892.56;4736833;29;20036;-88
2021/12/16 01:55:24;;;;;;;15.23;8.93;;;;;;;-145.06;0.00;60892.56;4736549;29;20443;-89
2021/12/16 01:58:15;;;;;;;15.07;8.43;;;;;;;-145.06;0.00;60892.56;4707195;29;20647;-88
2021/12/16 02:01:16;;;;;;;15.85;8.73;;;;;;;-145.06;0.00;60892.56;4722190;29;20479;-89
2021/12/16 02:04:30;;;;;;;14.75;8.98;;;;;;;-145.06;0.00;60892.56;4724487;29;20028;-89
2021/12/16 02:07:28;;;;;;;14.52;8.27;;;;;;;-145.06;0.00;60892.56;4738587;29;20055;-89
2021/12/16 02:10:07;;;;;;;13.73;8.20;;;;;;;10.68;0.00;60892.56;4725255;29;20664;-89
2021/12/16 02:27:42;;;;;;;13.05;7.00;;;;;;;-145.06;0.00;60892.56;4731062;29;20021;-89
2021/12/16 02:36:26;;;;;;;11.38;6.43;;;;;;;10.60;0.00;60892.56;4736779;29;20505;-89
2021/12/16 02:39:05;;;;;;;10.90;6.70;;;;;;;-145.06;0.00;60892.56;4732573;29;20035;-89
2021/12/16 02:41:46;;;;;;;9.90;5.93;;;;;;;-145.06;0.00;60892.56;4726187;29;20503;-89
2021/12/16 02:44:36;;;;;;;9.27;5.85;;;;;;;-145.06;0.00;60892.56;4714601;29;20305;-90
2021/12/16 02:50:15;;;;;;;10.85;6.07;;;;;;;-145.06;0.00;60892.56;4728222;29;20040;-89
2021/12/16 02:52:54;;;;;;;11.30;6.80;;;;;;;-145.06;0.00;60892.56;4728626;29;20036;-88
2021/12/16 02:55:33;;;;;;;10.07;6.07;;;;;;;-145.06;0.00;60892.56;4728832;29;20033;-88
2021/12/16 02:58:14;;;;;;;10.90;6.40;;;;;;;-145.06;0.00;60892.56;4729490;29;20049;-88
2021/12/16 03:01:02;;;;;;;11.90;6.45;;;;;;;-145.06;0.00;60892.56;4728809;29;20269;-88
2021/12/16 03:03:42;;;;;;;9.75;5.90;;;;;;;-145.06;0.00;60892.56;4727320;29;20028;-89
2021/12/16 03:06:21;;;;;;;;;;;;;;;-145.06;0.00;60892.56;4745094;29;20119;-89
2021/12/16 03:09:06;;;;;;;8.10;5.13;;;;;;;10.67;0.00;60892.56;4705273;29;20010;-90
2021/12/16 03:14:36;;;;;;;8.95;5.38;;;;;;;-145.06;0.00;60892.56;4725446;29;20032;-90
2021/12/16 03:17:31;;;;;;;9.15;5.97;;;;;;;-145.06;0.00;60892.56;4716161;29;20384;-89
2021/12/16 03:20:21;;;;;;;9.35;5.85;;;;;;;10.62;0.00;60892.56;4723655;29;20049;-89
2021/12/16 03:37:41;;;;;;;10.60;6.13;;;;;;;-145.06;0.00;60892.56;4727055;29;20037;-89
2021/12/16 03:40:08;;;;;;;10.90;6.82;;;;;;;-145.06;0.00;60892.56;4710099;29;20049;-88
2021/12/16 03:42:57;;;;;;;9.90;5.93;;;;;;;-145.06;0.00;60892.56;4723545;29;20116;-89
2021/12/16 03:49:00;;;;;;;10.30;5.78;;;;;;;-145.06;0.00;60892.56;4729045;29;20024;-89
2021/12/16 03:51:50;;;;;;;9.93;6.25;;;;;;;10.58;0.00;60892.56;4714196;29;20040;-89
2021/12/16 03:54:33;;;;;;;9.40;5.40;;;;;;;10.61;0.00;60892.56;4721964;29;20035;-89
2021/12/16 03:57:13;;;;;;;10.00;5.90;;;;;;;-145.06;0.00;60892.56;4726725;29;20032;-88
2021/12/16 03:59:53;;;;;;;11.02;6.25;;;;;;;-145.06;0.00;60892.56;4717288;29;20033;-89
2021/12/16 04:02:34;;;;;;;11.18;6.60;;;;;;;-145.06;0.00;60892.56;4713596;29;20036;-89
2021/12/16 04:05:14;;;;;;;9.48;6.25;;;;;;;10.55;0.00;60892.56;4724230;29;20036;-89
2021/12/16 04:07:53;;;;;;;10.05;5.97;;;;;;;-145.06;0.00;60892.56;4723044;29;20368;-90
2021/12/16 04:10:39;;;;;;;10.90;6.50;;;;;;;10.54;0.00;60892.56;4725511;29;20388;-89
2021/12/16 04:13:19;;;;;;;9.38;5.85;;;;;;;-145.06;0.00;60892.56;4719754;29;20490;-88
2021/12/16 04:15:59;;;;;;;9.93;6.43;;;;;;;10.51;0.00;60892.56;4719632;29;20044;-89
2021/12/16 04:18:38;;;;;;;8.83;5.93;;;;;;;10.51;0.00;60892.56;4744843;29;20032;-89
2021/12/16 04:21:19;;;;;;;11.13;6.50;;;;;;;-145.06;0.00;60892.56;4731221;29;20276;-89
2021/12/16 04:23:58;;;;;;;12.35;6.70;;;;;;;-145.06;0.00;60892.56;4725999;29;20036;-89
2021/12/16 04:26:40;;;;;;;9.88;6.40;;;;;;;-145.06;0.00;60892.56;4727703;29;20040;-89
2021/12/16 04:29:22;;;;;;;10.50;6.43;;;;;;;-145.06;0.00;60892.56;4723739;29;20037;-90
2021/12/16 04:32:04;;;;;;;9.82;6.00;;;;;;;-145.06;0.00;60892.56;4736062;29;20518;-89
2021/12/16 04:34:43;;;;;;;11.43;6.22;;;;;;;-145.06;0.00;60892.56;4728164;29;20067;-89
2021/12/16 04:37:22;;;;;;;10.07;6.32;;;;;;;-145.06;0.00;60892.56;4713322;29;20040;-89
2021/12/16 04:40:07;;;;;;;9.00;5.60;;;;;;;-145.06;0.00;60892.56;4719733;29;20041;-90
2021/12/16 04:42:53;;;;;;;9.85;6.10;;;;;;;-145.06;0.00;60892.56;4713864;29;20363;-90
2021/12/16 04:45:36;;;;;;;8.52;5.40;;;;;;;-145.06;0.00;60892.56;4731550;29;20032;-88
2021/12/16 04:48:15;;;;;;;9.70;5.63;;;;;;;-145.06;0.00;60892.56;4729783;29;20065;-89
2021/12/16 04:50:55;;;;;;;9.93;6.00;;;;;;;-145.06;0.00;60892.56;4723927;29;20068;-89
2021/12/16 04:53:35;;;;;;;9.77;5.93;;;;;;;-145.06;0.00;60892.56;4718252;29;20048;-89
2021/12/16 04:56:16;;;;;;;10.60;6.30;;;;;;;-145.06;0.00;60892.56;4729467;29;20028;-89
2021/12/16 04:58:56;;;;;;;10.20;5.63;;;;;;;-145.06;0.00;60892.56;4726879;29;20114;-90
2021/12/16 05:01:39;;;;;;;8.27;5.43;;;;;;;-145.06;0.00;60892.56;4707562;29;20024;-88
2021/12/16 05:04:19;;;;;;;10.95;6.20;;;;;;;-145.06;0.00;60892.56;4734542;29;20384;-89
2021/12/16 05:06:57;;;;;;;;;;;;;;;-145.06;0.00;60892.56;4720648;29;20048;-89
2021/12/16 05:10:03;;;;;;;7.88;4.72;;;;;;;-145.06;0.00;60892.56;4722014;29;20005;-89
2021/12/16 05:12:56;;;;;;;8.48;5.30;;;;;;;-145.06;0.00;60892.56;4730708;29;20033;-89
2021/12/16 05:15:38;;;;;;;7.40;4.78;;;;;;;-145.06;0.00;60892.56;4715645;29;20020;-89
2021/12/16 05:18:25;;;;;;;9.75;5.80;;;;;;;-145.06;0.00;60892.56;4716258;29;20029;-89
2021/12/16 05:21:27;;;;;;;10.18;6.20;;;;;;;-145.06;0.00;60892.56;4712511;29;20036;-89
2021/12/16 05:27:07;;;;;;;9.05;5.40;;;;;;;-145.06;0.00;60892.56;4726798;29;20475;-89
2021/12/16 05:29:46;;;;;;;9.00;5.95;;;;;;;10.32;0.00;60892.56;4717152;29;20071;-89
2021/12/16 05:32:25;;;;;;;9.02;5.93;;;;;;;-145.06;0.00;60892.56;4712722;29;20060;-88
2021/12/16 05:35:04;;;;;;;10.50;6.33;;;;;;;-145.06;0.00;60892.56;4725592;29;20383;-88
2021/12/16 05:37:45;;;;;;;12.30;6.78;;;;;;;-145.06;0.00;60892.56;4714593;29;20033;-88
2021/12/16 05:40:26;;;;;;;11.48;6.35;;;;;;;10.21;0.00;60892.56;4727176;29;20084;-89
2021/12/16 05:43:09;;;;;;;11.05;6.82;;;;;;;-145.06;0.00;60892.56;4712086;29;20654;-89
2021/12/16 05:45:49;;;;;;;10.40;6.65;;;;;;;-145.06;0.00;60892.56;4725391;29;20613;-88
2021/12/16 05:48:33;;;;;;;12.73;7.60;;;;;;;10.12;0.00;60892.56;4712077;29;20028;-89
2021/12/16 05:51:22;;;;;;;15.27;7.47;;;;;;;-145.06;0.00;60892.56;4720073;29;20040;-88
2021/12/16 05:54:05;;;;;;;12.00;7.72;;;;;;;-145.06;0.00;60892.56;4726489;29;20040;-89
2021/12/16 05:56:45;;;;;;;12.10;7.00;;;;;;;-145.06;0.00;60892.56;4725512;29;20044;-90
2021/12/16 05:59:24;;;;;;;13.18;8.20;;;;;;;-145.06;0.00;60892.56;4717937;29;20075;-89
2021/12/16 06:02:03;;;;;;;12.75;7.13;;;;;;;-145.06;0.00;60892.56;4717300;29;20069;-89
2021/12/16 06:04:42;;;;;;;10.68;7.03;;;;;;;-145.06;0.00;60892.56;4714754;29;20040;-89
2021/12/16 06:07:21;;;;;;;10.63;6.73;;;;;;;-145.06;0.00;60892.56;4714492;29;20044;-88
2021/12/16 06:10:00;;;;;;;9.20;6.57;;;;;;;-145.06;0.00;60892.56;4724674;29;21871;-89
2021/12/16 06:12:39;;;;;;;11.15;6.85;;;;;;;-145.06;0.00;60892.56;4721882;29;20036;-89
2021/12/16 06:15:35;;;;;;;10.38;6.32;;;;;;;-145.06;0.00;60892.56;4726262;29;20040;-87
2021/12/16 06:27:13;;;;;;;6.82;3.90;;;;;;;-145.06;0.00;60892.56;4733673;29;20394;-89
2021/12/16 06:29:53;;;;;;;9.02;5.55;;;;;;;-145.06;0.00;60892.56;4720457;29;20028;-89
2021/12/16 06:32:32;;;;;;;8.80;5.63;;;;;;;-145.06;0.00;60892.56;4728010;29;20111;-89
2021/12/16 06:35:12;;;;;;;9.87;5.03;;;;;;;-145.06;0.00;60892.56;4720427;29;20111;-89
2021/12/16 06:37:51;;;;;;;;;;;;;;;-145.06;0.00;60892.56;4742338;29;20483;-88
2021/12/16 06:40:30;;;;;;;8.40;4.97;;;;;;;-145.06;0.00;60892.56;4727171;29;19915;-89
2021/12/16 06:43:11;;;;;;;8.00;4.70;;;;;;;-145.06;0.00;60892.56;4714348;29;20049;-88
2021/12/16 06:45:53;;;;;;;10.30;5.43;;;;;;;-145.06;0.00;60892.56;4715055;29;20032;-88
2021/12/16 06:48:35;;;;;;;9.73;5.30;;;;;;;-145.06;0.00;60892.56;4737188;29;20032;-89
2021/12/16 06:51:22;;;;;;;9.13;5.28;;;;;;;-145.06;0.00;60892.56;4712207;29;20703;-87
2021/12/16 06:54:10;;;;;;;10.55;6.15;;;;;;;-145.06;0.00;60892.56;4712457;29;20041;-88
2021/12/16 06:57:03;;;;;;;9.30;5.65;;;;;;;-145.06;0.00;60892.56;4712765;29;20048;-88
2021/12/16 06:59:52;;;;;;;9.15;5.55;;;;;;;9.45;0.00;60892.56;4722292;29;20690;-88
2021/12/16 07:02:43;;;;;;;10.23;6.07;;;;;;;-145.06;0.00;60892.56;4706875;29;20036;-87
2021/12/16 07:05:38;;;;;;;8.13;4.90;;;;;;;-145.06;0.00;60892.56;4721331;29;20037;-88
2021/12/16 07:08:18;;;;;;;8.68;5.10;;;;;;;-145.06;0.00;60892.56;4716559;29;20028;-89
2021/12/16 07:10:57;;;;;;;;;;;;;;;-145.06;0.00;60892.56;4716120;29;20044;-89
2021/12/16 07:13:41;;;;;;;6.33;4.27;;;;;;;-145.06;0.00;60892.56;4726268;29;19966;-89
2021/12/16 07:16:20;;;;;;;7.10;4.47;;;;;;;-145.06;0.00;60892.56;4723564;29;20032;-89
2021/12/16 07:18:59;;;;;;;9.50;4.95;;;;;;;-145.06;0.00;60892.56;4706386;29;20032;-87
2021/12/16 07:21:38;;;;;;;9.63;5.68;;;;;;;-145.06;0.00;60892.56;4722299;29;20486;-89
2021/12/16 07:24:19;;;;;;;8.88;5.75;;;;;;;-145.06;0.00;60892.56;4711289;29;20049;-87
2021/12/16 07:26:58;;;;;;;8.68;5.25;;;;;;;-145.06;0.00;60892.56;4719722;29;20036;-89
2021/12/16 07:29:37;;;;;;;10.07;5.73;;;;;;;-145.06;0.00;60892.56;4715633;29;20037;-88
2021/12/16 07:32:16;;;;;;;8.17;5.17;;;;;;;-145.06;0.00;60892.56;4718812;29;20068;-89
2021/12/16 07:34:55;;;;;;;7.85;4.65;;;;;;;9.20;0.00;60892.56;4710046;29;20028;-88
2021/12/16 07:37:34;;;;;;;7.87;4.93;;;;;;;-145.06;0.00;60892.56;4729050;29;20063;-89
2021/12/16 07:40:16;;;;;;;8.13;5.00;;;;;;;-145.06;0.00;60892.56;4711024;29;20526;-88
2021/12/16 07:45:43;;;;;;;8.18;5.13;;;;;;;-145.06;0.00;60892.56;4732548;29;20036;-88
2021/12/16 07:48:26;;;;;;;8.85;5.03;;;;;;;-145.06;0.00;60892.56;4728182;29;20040;-88
2021/12/16 07:51:07;;;;;;;8.05;5.20;;;;;;;8.97;0.00;60892.56;4712502;29;20040;-86
2021/12/16 07:53:46;;;;;;;7.50;4.97;;;;;;;-145.06;0.00;60892.56;4716908;29;20032;-87
2021/12/16 07:56:25;;;;;;;8.67;5.57;;;;;;;-145.06;0.00;60892.56;4709968;29;20032;-88
2021/12/16 07:59:05;;;;;;;11.45;6.20;;;;;;;8.89;0.00;60892.56;4719936;29;20550;-88
2021/12/16 08:01:45;;;;;;;9.30;5.50;;;;;;;-145.06;0.00;60892.56;4727335;29;20044;-88
2021/12/16 08:04:30;;;;;;;7.90;5.28;;;;;;;-145.06;0.00;60892.56;4725472;29;20048;-89
2021/12/16 08:07:17;;;;;;;8.40;5.35;;;;;;;-145.06;0.00;60892.56;4737870;29;20032;-88
2021/12/16 08:09:56;;;;;;;10.07;5.65;;;;;;;-145.06;0.00;60892.56;4728750;29;20100;-88
2021/12/16 08:12:35;;;;;;;9.85;5.55;;;;;;;-145.06;0.00;60892.56;4710453;29;20391;-88
2021/12/16 08:15:17;;;;;;;9.25;5.50;;;;;;;-145.06;0.00;60892.56;4722995;29;20036;-88
2021/12/16 08:17:58;;;;;;;9.15;5.55;;;;;;;-145.06;0.00;60892.56;4700811;29;20160;-88
2021/12/16 08:20:37;;;;;;;9.40;5.53;;;;;;;-145.06;0.00;60892.56;4716771;29;20036;-88
2021/12/16 08:23:16;;;;;;;8.15;5.00;;;;;;;-145.06;0.00;60892.56;4715222;29;20036;-89
2021/12/16 08:25:55;;;;;;;9.17;5.77;;;;;;;-145.06;0.00;60892.56;4708960;29;20032;-88
2021/12/16 08:28:35;;;;;;;9.20;5.85;;;;;;;-145.06;0.00;60892.56;4725719;29;20056;-88
2021/12/16 08:31:14;;;;;;;9.05;5.80;;;;;;;-145.06;0.00;60892.56;4714445;29;20037;-88
2021/12/16 08:33:53;;;;;;;8.27;5.20;;;;;;;-145.06;0.00;60892.56;4728436;29;20028;-89
2021/12/16 08:36:34;;;;;;;7.57;4.85;;;;;;;-145.06;0.00;60892.56;4717696;29;20111;-89
2021/12/16 08:39:13;;;;;;;8.13;4.70;;;;;;;-145.06;0.00;60892.56;4730201;29;20025;-88
2021/12/16 08:41:55;;;;;;;8.38;5.18;;;;;;;9.38;0.00;60892.56;4745875;29;20368;-89
2021/12/16 08:44:34;;;;;;;8.77;5.50;;;;;;;9.09;0.00;60892.56;4709767;29;20041;-89
2021/12/16 08:47:17;;;;;;;7.50;5.03;;;;;;;9.11;0.00;60892.56;4715191;29;20032;-87
2021/12/16 08:49:57;;;;;;;8.73;5.35;;;;;;;9.38;0.00;60892.56;4723005;29;20123;-89
2021/12/16 08:52:36;;;;;;;8.45;5.30;;;;;;;9.17;0.00;60892.56;4712990;29;20119;-88
2021/12/16 08:55:16;;;;;;;10.20;6.07;;;;;;;10.68;0.00;60892.56;4712997;29;20041;-89
2021/12/16 08:57:56;;;;;;;9.35;5.68;;;;;;;9.24;0.00;60892.56;4718008;29;20024;-87
2021/12/16 09:00:41;;;;;;;8.52;5.40;;;;;;;9.26;0.00;60892.56;4717517;29;20471;-88
2021/12/16 09:03:20;;;;;;;9.98;5.68;;;;;;;-145.06;0.00;60892.56;4720802;29;20036;-88
2021/12/16 09:06:02;;;;;;;9.60;5.68;;;;;;;-145.06;0.00;60892.56;4736378;29;20040;-89
2021/12/16 09:08:42;;;;;;;10.27;5.53;;;;;;;-145.06;0.00;60892.56;4722730;29;20060;-88
2021/12/16 09:11:24;;;;;;;9.57;5.32;;;;;;;-145.06;0.00;60892.56;4718766;29;20068;-88
2021/12/16 09:14:04;;;;;;;10.98;6.03;;;;;;;-145.06;0.00;60892.56;4712521;29;20107;-89
2021/12/16 09:16:43;;;;;;;9.45;5.65;;;;;;;9.55;0.00;60892.56;4734365;29;20032;-88
2021/12/16 09:19:22;;;;;;;9.25;5.57;;;;;;;-145.06;0.00;60892.56;4741543;29;20123;-89
2021/12/16 09:22:01;;;;;;;10.50;5.93;;;;;;;-145.06;0.00;60892.56;4733800;29;20120;-87
2021/12/16 09:24:40;;;;;;;9.90;5.65;;;;;;;-145.06;0.00;60892.56;4712421;29;20036;-88
2021/12/16 09:27:19;;;;;;;11.00;6.73;;;;;;;-145.06;0.00;60892.56;4713798;29;20044;-88
2021/12/16 09:29:58;;;;;;;;;;;;;;;-145.06;0.00;60892.56;4715050;29;20270;-89
2021/12/16 09:32:38;;;;;;;7.68;4.68;;;;;;;-145.06;0.00;60892.56;4714401;29;20393;-89
2021/12/16 09:35:20;;;;;;;6.95;4.35;;;;;;;9.79;0.00;60892.56;4722175;29;20044;-89
2021/12/16 09:38:04;;;;;;;8.52;5.20;;;;;;;-145.06;0.00;60892.56;4720801;29;20037;-89
2021/12/16 09:40:49;;;;;;;8.95;5.50;;;;;;;-145.06;0.00;60892.56;4726483;29;20482;-88
2021/12/16 09:43:32;;;;;;;11.73;6.40;;;;;;;-145.06;0.00;60892.56;4711989;29;20033;-90
2021/12/16 09:46:13;;;;;;;8.73;5.72;;;;;;;-145.06;0.00;60892.56;4733890;29;20036;-88
2021/12/16 09:48:53;;;;;;;12.20;6.97;;;;;;;-145.06;0.00;60892.56;4726167;29;20024;-88
2021/12/16 09:51:35;;;;;;;11.93;6.70;;;;;;;-145.06;0.00;60892.56;4720219;29;20384;-89
2021/12/16 09:54:19;;;;;;;11.25;6.57;;;;;;;-145.06;0.00;60892.56;4711837;29;20040;-88
2021/12/16 09:56:59;;;;;;;12.18;6.72;;;;;;;-145.06;0.00;60892.56;4720018;29;20491;-88
2021/12/16 09:59:38;;;;;;;10.77;6.78;;;;;;;-145.06;0.00;60892.56;4739488;29;20036;-88
2021/12/16 10:02:19;;;;;;;12.20;6.85;;;;;;;-145.06;0.00;60892.56;4724723;29;20475;-88
2021/12/16 10:04:58;;;;;;;10.52;6.95;;;;;;;-145.06;0.00;60892.56;4733034;29;20033;-89
2021/12/16 10:07:38;;;;;;;11.18;6.60;;;;;;;-145.06;0.00;60892.56;4715318;29;20032;-88
2021/12/16 10:10:24;;;;;;;9.07;5.70;;;;;;;-145.06;0.00;60892.56;4725970;29;20033;-88
2021/12/16 10:13:04;;;;;;;9.45;5.53;;;;;;;-145.06;0.00;60892.56;4722098;29;20040;-89
2021/12/16 10:18:42;;;;;;;10.40;5.85;;;;;;;-145.06;0.00;60892.56;4687479;29;20057;-88
2021/12/16 10:21:23;;;;;;;10.68;5.53;;;;;;;-145.06;0.00;60892.56;4711852;29;20040;-89
2021/12/16 10:24:02;;;;;;;9.43;5.30;;;;;;;-145.06;0.00;60892.56;4711487;29;20542;-88
2021/12/16 10:26:41;;;;;;;8.35;5.18;;;;;;;-145.06;0.00;60892.56;4715853;29;20036;-88
2021/12/16 10:29:33;;;;;;;8.68;5.45;;;;;;;-145.06;0.00;60892.56;4728728;29;20479;-88
2021/12/16 10:32:41;;;;;;;10.77;6.05;;;;;;;-145.06;0.00;60892.56;4721845;29;20636;-90
2021/12/16 10:35:31;;;;;;;8.63;5.35;;;;;;;-145.06;0.00;60892.56;4716292;29;20024;-89
2021/12/16 10:38:11;;;;;;;9.75;5.25;;;;;;;-145.06;0.00;60892.56;4720805;29;20040;-89
2021/12/16 10:40:53;;;;;;;8.70;5.07;;;;;;;-145.06;0.00;60892.56;4727501;29;20036;-89
2021/12/16 10:43:43;;;;;;;11.73;6.45;;;;;;;-145.06;0.00;60892.56;4697671;29;20635;-89
2021/12/16 10:46:28;;;;;;;11.68;6.60;;;;;;;-145.06;0.00;60892.56;4711767;29;20494;-89
2021/12/16 10:49:14;;;;;;;10.70;6.30;;;;;;;-145.06;0.00;60892.56;4734578;29;20028;-88
2021/12/16 10:51:57;;;;;;;10.98;6.13;;;;;;;-145.06;0.00;60892.56;4703829;29;20028;-89
2021/12/16 10:54:46;;;;;;;10.13;6.57;;;;;;;-145.06;0.00;60892.56;4718316;29;20028;-87
2021/12/16 10:57:28;;;;;;;10.35;6.30;;;;;;;-145.06;0.00;60892.56;4722514;29;20115;-89
2021/12/16 11:00:12;;;;;;;10.23;6.07;;;;;;;-145.06;0.00;60892.56;4719919;29;20104;-88
2021/12/16 11:02:51;;;;;;;11.05;6.03;;;;;;;-145.06;0.00;60892.56;4727762;29;20643;-88
2021/12/16 11:05:30;;;;;;;10.17;6.67;;;;;;;-145.06;0.00;60892.56;4727912;29;20037;-88
2021/12/16 11:08:11;;;;;;;10.43;6.63;;;;;;;-145.06;0.00;60892.56;4725809;29;20036;-89
2021/12/16 11:10:50;;;;;;;10.43;6.43;;;;;;;-145.06;0.00;60892.56;4722700;29;20115;-88
2021/12/16 11:13:30;;;;;;;8.33;5.43;;;;;;;-145.06;0.00;60892.56;4720353;29;20036;-89
2021/12/16 11:16:09;;;;;;;9.88;5.70;;;;;;;-145.06;0.00;60892.56;4715884;29;20036;-88
2021/12/16 11:18:48;;;;;;;10.35;6.40;;;;;;;-145.06;0.00;60892.56;4738235;29;20529;-89
2021/12/16 11:21:40;;;;;;;9.30;6.13;;;;;;;-145.06;0.00;60892.56;4724632;29;20067;-89
2021/12/16 11:24:24;;;;;;;11.02;6.63;;;;;;;-145.06;0.00;60892.56;4755205;29;20012;-89
2021/12/16 11:27:34;;;;;;;11.82;7.00;;;;;;;-145.06;0.00;60892.56;4753178;29;20088;-89
2021/12/16 11:30:34;;;;;;;9.48;6.30;;;;;;;-145.06;0.00;60892.56;4727810;29;20036;-89
2021/12/16 11:33:21;;;;;;;11.13;6.20;;;;;;;187.52;0.00;60892.56;4724870;29;20103;-89
2021/12/16 11:36:06;;;;;;;9.82;6.00;;;;;;;-145.06;0.00;60892.56;4725188;29;20040;-90
2021/12/16 11:38:54;;;;;;;9.77;6.07;;;;;;;-145.06;0.00;60892.56;4703441;29;20032;-90
2021/12/16 11:41:41;;;;;;;10.48;6.78;;;;;;;-145.06;0.00;60892.56;4712020;29;20039;-89
2021/12/16 11:44:28;;;;;;;9.13;5.60;;;;;;;-145.06;0.00;60892.56;4726419;29;20056;-88
2021/12/16 11:47:20;;;;;;;10.48;6.13;;;;;;;-145.06;0.00;60892.56;4746076;29;20036;-89
2021/12/16 11:50:04;;;;;;;10.30;6.38;;;;;;;-145.06;0.00;60892.56;4718603;29;20057;-89
2021/12/16 11:52:45;;;;;;;9.30;6.10;;;;;;;21.08;0.00;60892.56;4721533;29;20028;-89
2021/12/16 11:55:24;;;;;;;10.65;6.40;;;;;;;-145.06;0.00;60892.56;4731272;29;20478;-90
2021/12/16 11:58:06;;;;;;;9.20;5.93;;;;;;;-145.06;0.00;60892.56;4721643;29;20391;-87
2021/12/16 12:00:45;;;;;;;8.38;5.22;;;;;;;-145.06;0.00;60892.56;4713812;29;20037;-88
2021/12/16 12:03:34;;;;;;;8.73;5.78;;;;;;;13.01;0.00;60892.56;4716314;29;20028;-89
2021/12/16 12:06:22;;;;;;;9.55;5.18;;;;;;;13.08;0.00;60892.56;4719614;29;20068;-89
2021/12/16 12:09:04;;;;;;;8.48;5.20;;;;;;;-145.06;0.00;60892.56;4717796;29;20041;-88
2021/12/16 12:11:43;;;;;;;8.40;5.68;;;;;;;-145.06;0.00;60892.56;4735091;29;20029;-88
2021/12/16 12:14:32;;;;;;;9.10;5.57;;;;;;;-145.06;0.00;60892.56;4718101;29;20116;-88
2021/12/16 12:17:19;;;;;;;10.32;5.95;;;;;;;13.14;0.00;60892.56;4718656;29;20395;-89
2021/12/16 12:19:58;;;;;;;8.90;6.07;;;;;;;-145.06;0.00;60892.56;4720086;29;20020;-88
2021/12/16 12:22:37;;;;;;;9.82;6.05;;;;;;;-145.06;0.00;60892.56;4721267;29;20032;-88
2021/12/16 12:25:17;;;;;;;11.70;7.22;;;;;;;13.13;0.00;60892.56;4728681;29;20127;-88
2021/12/16 12:27:56;;;;;;;12.48;7.07;;;;;;;13.12;0.00;60892.56;4718279;29;20493;-89
2021/12/16 12:30:35;;;;;;;13.07;7.85;;;;;;;13.12;0.00;60892.56;4734294;29;20036;-89
2021/12/16 12:33:15;;;;;;;15.00;8.10;;;;;;;13.07;0.00;60892.56;4739340;29;20032;-89
2021/12/16 12:35:54;;;;;;;13.18;8.05;;;;;;;13.02;0.00;60892.56;4735105;29;20487;-88
2021/12/16 12:38:35;;;;;;;13.48;8.00;;;;;;;13.12;0.00;60892.56;4722501;29;20037;-89
2021/12/16 12:41:15;;;;;;;9.20;6.13;;;;;;;12.98;0.00;60892.56;4714201;29;20040;-88
2021/12/16 12:43:56;;;;;;;9.02;6.03;;;;;;;-145.06;0.00;60892.56;4720039;29;20031;-89
2021/12/16 12:46:38;;;;;;;11.00;6.45;;;;;;;-145.06;0.00;60892.56;4737586;29;20031;-90
2021/12/16 12:49:25;;;;;;;11.27;6.28;;;;;;;-145.06;0.00;60892.56;4725047;29;20033;-89
2021/12/16 12:52:17;;;;;;;12.15;7.18;;;;;;;-145.06;0.00;60892.56;4722935;29;20603;-89
2021/12/16 12:55:14;;;;;;;11.00;6.68;;;;;;;-145.06;0.00;60892.56;4723144;29;20033;-88
2021/12/16 12:58:04;;;;;;;9.55;6.53;;;;;;;-145.06;0.00;60892.56;4714103;29;20028;-90
2021/12/16 13:00:49;;;;;;;10.40;6.20;;;;;;;-145.06;0.00;60892.56;4714308;29;20028;-88
2021/12/16 13:03:38;;;;;;;8.77;5.68;;;;;;;-145.06;0.00;60892.56;4722907;29;20031;-88
2021/12/16 13:06:17;;;;;;;9.88;5.50;;;;;;;-145.06;0.00;60892.56;4716266;29;20044;-88
2021/12/16 13:08:56;;;;;;;10.02;6.07;;;;;;;-145.06;0.00;60892.56;4739626;29;20542;-89
2021/12/16 13:11:38;;;;;;;11.83;6.87;;;;;;;-145.06;0.00;60892.56;4716029;29;20041;-87
2021/12/16 13:14:23;;;;;;;11.05;6.72;;;;;;;-145.06;0.00;60892.56;4725547;29;20605;-89
2021/12/16 13:28:40;;;;;;;10.60;6.65;;;;;;;-145.06;0.00;60892.56;4723433;29;20657;-88
2021/12/16 13:31:29;;;;;;;10.57;6.20;;;;;;;-145.06;0.00;60892.56;4727115;29;20051;-88
2021/12/16 13:34:33;;;;;;;8.90;5.50;;;;;;;187.52;0.00;60892.56;4724365;29;20029;-88
2021/12/16 13:37:22;;;;;;;8.55;5.32;;;;;;;21.08;0.00;60892.56;4725000;29;20037;-88
2021/12/16 13:40:13;;;;;;;9.60;5.82;;;;;;;-145.06;0.00;60892.56;4710178;29;20667;-89
2021/12/16 13:43:20;;;;;;;9.07;5.80;;;;;;;-145.06;0.00;60892.56;4718549;29;20029;-88
2021/12/16 13:59:26;;;;;;;7.75;5.13;;;;;;;21.08;0.00;60892.56;4724616;29;20024;-89
2021/12/16 14:02:04;;;;;;;6.80;4.55;;;;;;;-145.06;0.00;60892.56;4731878;29;20068;-88
2021/12/16 14:07:57;;;;;;;8.63;5.55;;;;;;;-145.06;0.00;60892.56;4719164;29;20029;-88
2021/12/16 14:10:46;;;;;;;8.25;5.38;;;;;;;-145.06;0.00;60892.56;4714649;29;20080;-89
2021/12/16 14:16:42;;;;;;;;;;;;;;;-145.06;0.00;60892.56;4730838;29;20490;-88
2021/12/16 14:34:50;;;;;;;7.25;4.88;;;;;;;187.52;0.00;60892.56;4740832;29;20044;-88
2021/12/16 14:40:13;;;;;;;8.38;4.22;;;;;;;-145.06;0.00;60892.56;4737009;29;20033;-88
2021/12/16 14:43:17;;;;;;;6.95;4.32;;;;;;;-145.06;0.00;60892.56;4733538;29;20640;-87
2021/12/16 14:46:03;;;;;;;7.72;4.25;;;;;;;-145.06;0.00;60892.56;4726841;29;20482;-89
2021/12/16 14:48:42;;;;;;;7.45;4.60;;;;;;;-145.06;0.00;60892.56;4723151;29;20029;-87
2021/12/16 14:51:25;;;;;;;8.10;4.85;;;;;;;21.08;0.00;60892.56;4745604;29;20036;-89
2021/12/16 14:54:07;;;;;;;8.82;4.30;;;;;;;-145.06;0.00;60892.56;4740625;29;20044;-89
2021/12/16 14:56:46;;;;;;;9.00;4.15;;;;;;;-145.06;0.00;60892.56;4723516;29;20040;-89
2021/12/16 14:59:27;;;;;;;7.10;3.97;;;;;;;-145.06;0.00;60892.56;4728166;29;20032;-89
2021/12/16 15:02:08;;;;;;;5.90;3.58;;;;;;;-145.06;0.00;60892.56;4723380;29;20376;-88
2021/12/16 15:04:47;;;;;;;6.57;4.35;;;;;;;-145.06;0.00;60892.56;4730492;29;20032;-89
2021/12/16 15:07:27;;;;;;;7.57;4.03;;;;;;;-145.06;0.00;60892.56;4722209;29;20519;-87
2021/12/16 15:10:12;;;;;;;6.60;3.85;;;;;;;-145.06;0.00;60892.56;4731488;29;20067;-88
2021/12/16 15:13:05;;;;;;;6.18;3.88;;;;;;;-145.06;0.00;60892.56;4728778;29;20072;-89
2021/12/16 15:16:02;;;;;;;7.43;3.92;;;;;;;-145.06;0.00;60892.56;4709394;29;21893;-89
2021/12/16 15:39:44;;;;;;;6.55;3.67;;;;;;;-145.06;0.00;60892.56;4725737;29;20021;-88
2021/12/16 15:45:28;;;;;;;4.75;3.13;;;;;;;-145.06;0.00;60892.56;4731395;29;20040;-89
2021/12/16 15:48:10;;;;;;;5.53;3.50;;;;;;;-145.06;0.00;60892.56;4721606;29;20032;-88
2021/12/16 15:50:54;;;;;;;5.10;3.45;;;;;;;-145.06;0.00;60892.56;4723746;29;20035;-87
2021/12/16 15:53:40;;;;;;;5.68;3.17;;;;;;;-145.06;0.00;60892.56;4709173;29;20041;-88
2021/12/16 15:56:29;;;;;;;7.18;3.60;;;;;;;-145.06;0.00;60892.56;4719202;29;20024;-89
2021/12/16 15:59:11;;;;;;;5.45;3.35;;;;;;;-145.06;0.00;60892.56;4715479;29;20036;-88
2021/12/16 16:01:53;;;;;;;7.25;4.65;;;;;;;-145.06;0.00;60892.56;4727762;29;20491;-89
2021/12/16 16:04:35;;;;;;;10.45;6.07;;;;;;;187.52;0.00;60892.56;4713248;29;20527;-89
2021/12/16 16:07:16;;;;;;;9.85;5.68;;;;;;;-145.06;0.00;60892.56;4716463;29;20131;-89
2021/12/16 16:09:57;;;;;;;7.35;5.28;;;;;;;-145.06;0.00;60892.56;4726390;29;20111;-88
2021/12/16 16:12:36;;;;;;;6.70;4.57;;;;;;;-145.06;0.00;60892.56;4721688;29;20032;-88